Time;durP1;ratioP1;P1;durP2;ratioP2;P2;SDS_P1;SDS_P2;PMS_P1;PMS_P2;Temp;Humidity;BMP_temperature;BMP_pressure;BME280_temperature;BME280_humidity;BME280_pressure;Samples;Min_cycle;Max_cycle;Signal;HPM_P1;HPM_P2
2021/06/05 00:00:42;;;;;;;58.13;2.90;;;19.10;1.00;;;;;;4992812;28;20553;-67
2021/06/05 00:03:09;;;;;;;58.93;3.30;;;19.10;1.00;;;;;;4992649;28;20451;-67
2021/06/05 00:05:39;;;;;;;57.87;2.53;;;19.10;1.00;;;;;;4992605;28;20541;-66
2021/06/05 00:08:06;;;;;;;57.80;2.40;;;19.10;1.00;;;;;;4992252;28;20470;-67
2021/06/05 00:10:35;;;;;;;59.10;4.10;;;19.10;1.00;;;;;;4992683;28;20538;-67
2021/06/05 00:13:02;;;;;;;57.90;3.10;;;19.10;1.00;;;;;;4992602;28;20487;-67
2021/06/05 00:15:32;;;;;;;57.77;2.53;;;19.10;1.00;;;;;;4992431;28;20963;-67
2021/06/05 00:18:00;;;;;;;58.03;2.70;;;19.10;1.00;;;;;;4992289;28;20542;-67
2021/06/05 00:20:29;;;;;;;58.00;2.70;;;19.10;1.00;;;;;;4992395;28;20446;-67
2021/06/05 00:22:55;;;;;;;58.27;2.97;;;19.00;1.00;;;;;;4992403;28;20551;-67
2021/06/05 00:25:22;;;;;;;58.80;3.50;;;19.00;1.00;;;;;;4992622;28;20473;-67
2021/06/05 00:27:49;;;;;;;58.80;2.87;;;19.00;1.00;;;;;;4992815;28;20473;-67
2021/06/05 00:30:16;;;;;;;57.47;2.80;;;18.90;1.00;;;;;;4992489;28;20443;-67
2021/06/05 00:32:43;;;;;;;58.80;2.40;;;18.90;1.00;;;;;;4992561;28;20548;-66
2021/06/05 00:35:11;;;;;;;58.17;3.00;;;18.90;1.00;;;;;;4992588;28;20538;-67
2021/06/05 00:37:38;;;;;;;65.10;3.37;;;18.90;1.00;;;;;;4996334;28;20773;-67
2021/06/05 00:40:05;;;;;;;58.30;2.80;;;18.80;1.00;;;;;;4996161;28;20505;-67
2021/06/05 00:42:32;;;;;;;61.47;5.00;;;18.80;1.00;;;;;;4996173;28;20534;-67
2021/06/05 00:44:58;;;;;;;58.00;2.60;;;18.70;1.00;;;;;;4996283;28;20851;-67
2021/06/05 00:47:25;;;;;;;58.40;3.13;;;18.60;1.00;;;;;;4995862;28;20473;-66
2021/06/05 00:49:53;;;;;;;58.07;2.80;;;18.60;1.00;;;;;;4995899;28;21009;-66
2021/06/05 00:52:23;;;;;;;58.33;2.97;;;18.50;1.00;;;;;;4996131;28;20547;-67
2021/06/05 00:54:50;;;;;;;58.17;2.70;;;18.50;1.00;;;;;;4996155;28;20451;-67
2021/06/05 00:57:16;;;;;;;57.77;2.50;;;18.40;1.00;;;;;;4995674;28;20480;-67
2021/06/05 00:59:43;;;;;;;58.57;2.90;;;18.40;1.00;;;;;;4995726;28;20553;-67
2021/06/05 01:02:09;;;;;;;57.93;2.90;;;18.30;1.00;;;;;;4995817;28;20530;-66
2021/06/05 01:04:37;;;;;;;58.20;2.73;;;18.30;1.00;;;;;;4995724;28;20974;-67
2021/06/05 01:07:07;;;;;;;57.80;2.80;;;18.20;1.00;;;;;;4995979;28;20469;-67
2021/06/05 01:09:44;;;;;;;58.00;3.57;;;18.20;1.00;;;;;;4995822;28;20546;-66
2021/06/05 01:12:16;;;;;;;58.70;3.53;;;18.20;1.00;;;;;;4996096;28;20885;-67
2021/06/05 01:14:46;;;;;;;57.87;2.60;;;18.10;1.00;;;;;;4995666;28;20474;-67
2021/06/05 01:17:16;;;;;;;57.87;2.50;;;18.10;1.00;;;;;;4995512;28;20477;-66
2021/06/05 01:19:50;;;;;;;57.47;2.40;;;18.00;1.00;;;;;;4995614;28;20453;-67
2021/06/05 01:22:38;;;;;;;57.53;2.47;;;18.00;1.00;;;;;;4995722;28;20480;-66
2021/06/05 01:25:35;;;;;;;57.77;2.30;;;17.90;1.00;;;;;;4995462;28;20541;-67
2021/06/05 01:28:09;;;;;;;60.00;5.07;;;17.90;1.00;;;;;;4995498;28;20549;-66
2021/06/05 01:30:41;;;;;;;57.43;2.50;;;17.80;1.00;;;;;;4995276;28;20458;-66
2021/06/05 01:33:08;;;;;;;57.97;2.60;;;17.80;1.00;;;;;;4995262;28;20572;-66
2021/06/05 01:35:34;;;;;;;58.67;2.87;;;17.70;1.00;;;;;;4995185;28;20586;-66
2021/06/05 01:38:03;;;;;;;57.63;2.40;;;17.70;1.00;;;;;;4994915;28;20481;-67
2021/06/05 01:40:31;;;;;;;60.40;2.87;;;17.70;1.00;;;;;;4995309;28;20894;-66
2021/06/05 01:43:01;;;;;;;58.17;2.43;;;17.70;1.00;;;;;;4995292;28;20474;-66
2021/06/05 01:45:34;;;;;;;57.77;2.50;;;17.60;1.00;;;;;;4995138;28;20541;-66
2021/06/05 01:48:00;;;;;;;57.90;2.70;;;17.60;1.00;;;;;;4993439;28;20481;-67
2021/06/05 01:50:30;;;;;;;57.40;2.40;;;17.60;1.00;;;;;;4994864;28;20961;-67
2021/06/05 01:53:02;;;;;;;57.47;2.37;;;17.60;1.00;;;;;;4995207;28;20490;-67
2021/06/05 01:55:32;;;;;;;57.83;2.40;;;17.50;1.00;;;;;;4995083;28;20445;-66
2021/06/05 01:58:03;;;;;;;57.37;2.50;;;17.50;1.00;;;;;;4994876;28;20514;-66
2021/06/05 02:00:33;;;;;;;57.67;2.70;;;17.50;1.00;;;;;;4995104;28;20469;-67
2021/06/05 02:03:00;;;;;;;60.00;3.80;;;17.50;1.00;;;;;;4995019;28;20537;-67
2021/06/05 02:05:28;;;;;;;57.77;2.60;;;17.60;1.00;;;;;;4994892;28;20458;-67
2021/06/05 02:07:56;;;;;;;58.00;2.57;;;17.60;1.00;;;;;;4994486;28;20605;-67
2021/06/05 02:10:25;;;;;;;58.00;2.50;;;17.60;1.00;;;;;;4994503;28;20534;-66
2021/06/05 02:12:54;;;;;;;57.83;2.40;;;17.60;1.00;;;;;;4994535;28;21135;-67
2021/06/05 02:15:26;;;;;;;57.97;2.47;;;17.70;1.00;;;;;;4994511;28;20540;-67
2021/06/05 02:17:55;;;;;;;57.63;2.30;;;17.60;1.00;;;;;;4994432;28;20506;-67
2021/06/05 02:20:26;;;;;;;58.90;2.80;;;17.70;1.00;;;;;;4994498;28;20454;-67
2021/06/05 02:22:53;;;;;;;58.00;2.43;;;17.60;1.00;;;;;;4994503;28;20537;-66
2021/06/05 02:25:24;;;;;;;58.43;2.70;;;17.60;1.00;;;;;;4994367;28;20541;-67
2021/06/05 02:27:52;;;;;;;57.63;2.37;;;17.60;1.00;;;;;;4993987;28;20481;-67
2021/06/05 02:30:20;;;;;;;58.00;2.70;;;17.60;1.00;;;;;;4994196;28;20494;-67
2021/06/05 02:32:47;;;;;;;58.20;2.70;;;17.60;1.00;;;;;;4994222;28;20580;-67
2021/06/05 02:35:18;;;;;;;58.07;2.70;;;17.50;1.00;;;;;;4994328;28;20724;-66
2021/06/05 02:37:46;;;;;;;58.07;2.40;;;17.50;1.00;;;;;;4994071;28;20502;-67
2021/06/05 02:40:16;;;;;;;58.07;2.53;;;17.50;1.00;;;;;;4993920;28;20541;-67
2021/06/05 02:42:43;;;;;;;57.90;2.37;;;17.40;1.00;;;;;;4994409;28;20536;-67
2021/06/05 02:45:18;;;;;;;57.33;2.50;;;17.30;1.00;;;;;;4993866;28;20454;-66
2021/06/05 02:47:52;;;;;;;57.90;2.60;;;17.30;1.00;;;;;;4993770;28;20481;-67
2021/06/05 02:50:21;;;;;;;57.87;2.50;;;17.30;1.00;;;;;;4993882;28;20458;-67
2021/06/05 02:52:47;;;;;;;58.10;2.50;;;17.20;1.00;;;;;;4993702;28;20998;-67
2021/06/05 02:55:18;;;;;;;57.77;2.50;;;17.20;1.00;;;;;;4993942;28;20461;-67
2021/06/05 02:57:45;;;;;;;57.67;2.30;;;17.20;1.00;;;;;;4993512;28;20553;-67
2021/06/05 03:00:19;;;;;;;57.77;2.30;;;17.20;1.00;;;;;;4993455;28;20903;-68
2021/06/05 03:02:45;;;;;;;57.83;2.50;;;17.10;1.00;;;;;;4993680;28;21022;-67
2021/06/05 03:05:12;;;;;;;58.00;2.50;;;17.10;1.00;;;;;;4993466;28;20451;-67
2021/06/05 03:07:40;;;;;;;57.87;2.40;;;17.00;1.00;;;;;;4993514;28;20524;-67
2021/06/05 03:10:07;;;;;;;58.00;2.30;;;16.90;1.00;;;;;;4993418;28;20551;-67
2021/06/05 03:12:34;;;;;;;57.83;2.47;;;16.90;1.00;;;;;;4993348;28;20490;-67
2021/06/05 03:15:00;;;;;;;58.03;2.70;;;16.80;1.00;;;;;;4993547;28;20544;-67
2021/06/05 03:17:28;;;;;;;57.97;2.50;;;16.80;1.00;;;;;;4993324;28;20465;-67
2021/06/05 03:19:54;;;;;;;57.87;2.50;;;16.80;1.00;;;;;;4993157;28;20977;-66
2021/06/05 03:22:21;;;;;;;57.80;2.63;;;16.80;1.00;;;;;;4993458;28;20529;-67
2021/06/05 03:24:49;;;;;;;57.77;2.37;;;16.80;1.00;;;;;;4993429;28;20568;-67
2021/06/05 03:27:15;;;;;;;57.83;2.60;;;16.90;1.00;;;;;;4993034;28;20538;-67
2021/06/05 03:29:41;;;;;;;57.87;2.70;;;16.70;1.00;;;;;;4993148;28;20548;-67
2021/06/05 03:32:08;;;;;;;57.90;2.50;;;16.70;1.00;;;;;;4992941;28;20581;-67
2021/06/05 03:34:35;;;;;;;57.57;2.60;;;16.70;1.00;;;;;;4992996;28;20454;-67
2021/06/05 03:37:01;;;;;;;57.97;2.50;;;17.10;1.00;;;;;;4992994;28;20544;-67
2021/06/05 03:39:27;;;;;;;58.17;2.60;;;16.80;1.00;;;;;;4993163;28;20500;-67
2021/06/05 03:41:55;;;;;;;57.97;2.50;;;16.80;1.00;;;;;;4993179;28;20532;-67
2021/06/05 03:44:21;;;;;;;57.93;2.80;;;16.90;1.00;;;;;;4992899;28;20454;-67
2021/06/05 03:46:48;;;;;;;57.93;2.60;;;16.80;1.00;;;;;;4992702;28;20536;-67
2021/06/05 03:49:14;;;;;;;57.97;2.40;;;16.90;1.00;;;;;;4992630;28;20481;-67
2021/06/05 03:51:41;;;;;;;57.97;2.57;;;16.90;1.00;;;;;;4992922;28;20458;-66
2021/06/05 03:54:08;;;;;;;58.00;2.40;;;16.80;1.00;;;;;;4992863;28;20581;-67
2021/06/05 03:56:35;;;;;;;58.10;2.70;;;16.80;1.00;;;;;;4992612;28;20546;-67
2021/06/05 03:59:04;;;;;;;57.90;2.50;;;16.80;1.00;;;;;;4992421;28;20496;-67
2021/06/05 04:01:32;;;;;;;57.57;2.47;;;16.90;1.00;;;;;;4992534;28;21027;-67
2021/06/05 04:03:58;;;;;;;58.10;2.83;;;16.90;1.00;;;;;;4992841;28;20485;-67
2021/06/05 04:06:26;;;;;;;57.83;2.70;;;16.90;1.00;;;;;;4992639;28;20545;-67
2021/06/05 04:08:53;;;;;;;57.97;2.47;;;17.00;1.00;;;;;;4992433;28;20505;-67
2021/06/05 04:11:20;;;;;;;57.93;2.63;;;17.00;1.00;;;;;;4991891;28;20538;-67
2021/06/05 04:13:47;;;;;;;58.37;2.80;;;17.00;1.00;;;;;;4992361;28;20492;-68
2021/06/05 04:16:16;;;;;;;57.77;2.20;;;17.00;1.00;;;;;;4992554;28;20801;-67
2021/06/05 04:18:43;;;;;;;57.67;2.40;;;17.10;1.00;;;;;;4992717;28;20561;-67
2021/06/05 04:21:14;;;;;;;58.00;2.47;;;17.10;1.00;;;;;;4992454;28;21000;-67
2021/06/05 04:23:40;;;;;;;57.97;2.37;;;17.10;1.00;;;;;;4992574;28;20855;-67
2021/06/05 04:26:07;;;;;;;58.00;2.40;;;17.20;1.00;;;;;;4992351;28;20446;-67
2021/06/05 04:28:35;;;;;;;58.00;2.33;;;17.20;1.00;;;;;;4992116;28;20474;-67
2021/06/05 04:31:02;;;;;;;57.90;2.30;;;17.20;1.00;;;;;;4992673;28;20874;-68
2021/06/05 04:33:30;;;;;;;57.73;2.40;;;17.10;1.00;;;;;;4992398;28;20568;-67
2021/06/05 04:35:58;;;;;;;57.70;2.67;;;17.10;1.00;;;;;;4992675;28;20456;-67
2021/06/05 04:38:24;;;;;;;57.90;2.50;;;17.10;1.00;;;;;;4992219;28;20478;-67
2021/06/05 04:40:51;;;;;;;57.93;2.60;;;17.10;1.00;;;;;;4992328;28;20539;-67
2021/06/05 04:43:19;;;;;;;57.73;2.40;;;17.10;1.00;;;;;;4992223;28;20943;-67
2021/06/05 04:45:46;;;;;;;58.67;2.67;;;17.10;1.00;;;;;;4992422;28;20555;-67
2021/06/05 04:48:14;;;;;;;57.97;2.40;;;17.10;1.00;;;;;;4992043;28;20563;-67
2021/06/05 04:50:43;;;;;;;57.77;2.40;;;17.10;1.00;;;;;;4992341;28;20896;-67
2021/06/05 04:53:10;;;;;;;57.87;2.33;;;17.20;1.00;;;;;;4992228;28;20516;-67
2021/06/05 04:55:37;;;;;;;58.07;2.60;;;17.20;1.00;;;;;;4992079;28;20486;-67
2021/06/05 04:58:05;;;;;;;57.83;2.40;;;17.20;1.00;;;;;;4992026;28;20901;-67
2021/06/05 05:00:35;;;;;;;58.00;2.70;;;17.20;1.00;;;;;;4992114;28;20967;-67
2021/06/05 05:03:01;;;;;;;57.90;2.30;;;17.30;1.00;;;;;;4992406;28;20445;-67
2021/06/05 05:05:29;;;;;;;58.10;2.40;;;17.30;1.00;;;;;;4992104;28;20456;-67
2021/06/05 05:07:57;;;;;;;57.77;2.50;;;17.30;1.00;;;;;;4991648;28;20480;-67
2021/06/05 05:10:28;;;;;;;59.07;2.80;;;17.40;1.00;;;;;;4992333;28;20551;-67
2021/06/05 05:12:54;;;;;;;57.90;2.60;;;17.40;1.00;;;;;;4992109;28;20601;-67
2021/06/05 05:15:22;;;;;;;57.67;2.30;;;17.50;1.00;;;;;;4992123;28;20453;-67
2021/06/05 05:17:49;;;;;;;57.87;2.33;;;17.50;1.00;;;;;;4991705;28;20473;-67
2021/06/05 05:20:19;;;;;;;57.77;2.43;;;17.50;1.00;;;;;;4991910;28;20455;-67
2021/06/05 05:22:45;;;;;;;57.67;2.30;;;17.50;1.00;;;;;;4994555;28;21012;-67
2021/06/05 05:25:14;;;;;;;58.00;2.30;;;17.60;1.00;;;;;;4995706;28;20507;-67
2021/06/05 05:27:40;;;;;;;58.03;2.70;;;17.60;1.00;;;;;;4995267;28;20470;-67
2021/06/05 05:30:13;;;;;;;57.60;2.80;;;17.70;1.00;;;;;;4995299;28;20449;-68
2021/06/05 05:32:39;;;;;;;57.77;2.50;;;17.70;1.00;;;;;;4995335;28;20572;-67
2021/06/05 05:35:07;;;;;;;57.47;2.40;;;17.80;1.00;;;;;;4995212;28;20584;-67
2021/06/05 05:37:34;;;;;;;58.00;2.30;;;17.80;1.00;;;;;;4995118;28;20565;-67
2021/06/05 05:40:00;;;;;;;57.80;2.50;;;17.80;1.00;;;;;;4995045;28;20533;-67
2021/06/05 05:42:28;;;;;;;57.73;2.40;;;17.80;1.00;;;;;;4995267;28;20540;-68
2021/06/05 05:44:54;;;;;;;57.67;2.23;;;17.80;1.00;;;;;;4995106;28;20545;-67
2021/06/05 05:47:21;;;;;;;57.63;2.40;;;17.90;1.00;;;;;;4994744;28;20484;-67
2021/06/05 05:49:47;;;;;;;57.67;2.40;;;17.90;1.00;;;;;;4995272;28;20449;-67
2021/06/05 05:52:14;;;;;;;57.53;2.40;;;17.90;1.00;;;;;;4995080;28;20460;-67
2021/06/05 05:54:40;;;;;;;57.57;2.20;;;18.00;1.00;;;;;;4995086;28;20454;-67
2021/06/05 05:57:07;;;;;;;57.53;2.30;;;18.00;1.00;;;;;;4994775;28;20457;-67
2021/06/05 05:59:36;;;;;;;57.77;2.20;;;18.00;1.00;;;;;;4994842;28;21069;-67
2021/06/05 06:02:02;;;;;;;57.80;2.80;;;18.10;1.00;;;;;;4995086;28;20807;-67
2021/06/05 06:04:29;;;;;;;57.87;2.40;;;18.10;1.00;;;;;;4995188;28;20532;-67
2021/06/05 06:06:55;;;;;;;57.77;2.73;;;18.20;1.00;;;;;;4994720;28;20875;-67
2021/06/05 06:09:21;;;;;;;58.30;2.50;;;18.30;1.00;;;;;;4995063;28;20956;-67
2021/06/05 06:11:48;;;;;;;57.87;2.60;;;18.40;1.00;;;;;;4994723;28;20458;-67
2021/06/05 06:14:15;;;;;;;57.57;2.60;;;18.50;1.00;;;;;;4994497;28;21065;-67
2021/06/05 06:16:43;;;;;;;57.63;2.37;;;18.60;1.00;;;;;;4994610;28;20501;-67
2021/06/05 06:19:12;;;;;;;57.90;2.50;;;18.70;1.00;;;;;;4994307;28;20479;-67
2021/06/05 06:21:39;;;;;;;57.87;2.30;;;18.80;1.00;;;;;;4994665;28;20521;-67
2021/06/05 06:24:06;;;;;;;57.63;2.70;;;19.00;1.00;;;;;;4994343;28;21009;-67
2021/06/05 06:26:33;;;;;;;58.00;2.37;;;19.10;1.00;;;;;;4994168;28;20827;-66
2021/06/05 06:29:07;;;;;;;57.47;2.23;;;19.20;1.00;;;;;;4994240;28;20554;-67
2021/06/05 06:31:34;;;;;;;57.30;2.30;;;19.30;1.00;;;;;;4994254;28;20497;-67
2021/06/05 06:34:01;;;;;;;57.67;2.07;;;19.40;1.00;;;;;;4993670;28;20522;-68
2021/06/05 06:36:28;;;;;;;57.63;2.20;;;19.50;1.00;;;;;;4994204;28;20479;-67
2021/06/05 06:38:54;;;;;;;57.37;2.20;;;19.70;1.00;;;;;;4994483;28;20557;-68
2021/06/05 06:41:26;;;;;;;57.60;2.63;;;19.80;1.00;;;;;;4994009;28;21001;-67
2021/06/05 06:43:52;;;;;;;56.97;2.37;;;19.90;1.00;;;;;;4994007;28;20458;-67
2021/06/05 06:46:22;;;;;;;57.53;2.30;;;19.90;1.00;;;;;;4994095;28;20537;-67
2021/06/05 06:48:50;;;;;;;57.57;2.20;;;19.90;1.00;;;;;;4993957;28;20558;-67
2021/06/05 06:51:18;;;;;;;57.63;2.40;;;20.00;1.00;;;;;;4994003;28;20549;-67
2021/06/05 06:53:45;;;;;;;57.77;2.30;;;20.00;1.00;;;;;;4993867;28;20494;-67
2021/06/05 06:56:11;;;;;;;57.43;2.20;;;20.00;1.00;;;;;;4993577;28;20905;-67
2021/06/05 06:58:38;;;;;;;57.53;2.20;;;20.00;1.00;;;;;;4993337;28;20559;-67
2021/06/05 07:01:05;;;;;;;57.87;2.30;;;20.10;1.00;;;;;;4993925;28;20546;-67
2021/06/05 07:03:32;;;;;;;58.13;2.40;;;20.00;1.00;;;;;;4993757;28;20443;-67
2021/06/05 07:05:58;;;;;;;57.27;2.20;;;20.10;1.00;;;;;;4993581;28;20896;-66
2021/06/05 07:08:30;;;;;;;57.70;2.30;;;20.10;1.00;;;;;;4993406;28;20933;-66
2021/06/05 07:11:01;;;;;;;58.20;2.40;;;20.10;1.00;;;;;;4993445;28;20469;-67
2021/06/05 07:13:28;;;;;;;57.40;2.17;;;20.20;1.00;;;;;;4993620;28;20495;-67
2021/06/05 07:15:56;;;;;;;57.77;2.10;;;20.30;1.00;;;;;;4993351;28;20461;-66
2021/06/05 07:18:24;;;;;;;57.37;2.20;;;20.60;1.00;;;;;;4993255;28;20504;-66
2021/06/05 07:20:51;;;;;;;57.67;2.27;;;20.70;1.00;;;;;;4993431;28;20535;-66
2021/06/05 07:23:19;;;;;;;57.80;2.30;;;20.90;1.00;;;;;;4993337;28;20531;-67
2021/06/05 07:25:47;;;;;;;57.47;2.17;;;21.10;1.00;;;;;;4993343;28;20539;-67
2021/06/05 07:28:17;;;;;;;57.77;2.27;;;21.30;1.00;;;;;;4993107;28;20819;-67
2021/06/05 07:30:45;;;;;;;57.47;2.30;;;21.40;1.00;;;;;;4993472;28;20464;-67
2021/06/05 07:33:11;;;;;;;57.37;2.17;;;21.70;1.00;;;;;;4993030;28;20479;-67
2021/06/05 07:35:38;;;;;;;57.77;2.40;;;21.90;1.00;;;;;;4993025;28;20453;-67
2021/06/05 07:38:05;;;;;;;57.53;2.23;;;22.10;1.00;;;;;;4992643;28;20554;-67
2021/06/05 07:40:32;;;;;;;57.20;2.30;;;22.50;1.00;;;;;;4992983;28;20451;-67
2021/06/05 07:42:59;;;;;;;57.47;2.13;;;22.80;1.00;;;;;;4993077;28;20453;-67
2021/06/05 07:45:26;;;;;;;57.90;2.40;;;23.10;1.00;;;;;;4991981;28;20489;-67
2021/06/05 07:47:52;;;;;;;57.63;2.40;;;23.40;1.00;;;;;;4992568;28;20477;-68
2021/06/05 07:50:19;;;;;;;57.67;2.40;;;23.60;1.00;;;;;;4992880;28;20553;-67
2021/06/05 07:52:45;;;;;;;57.77;2.40;;;23.80;1.00;;;;;;4992674;28;20580;-67
2021/06/05 07:55:12;;;;;;;57.40;2.23;;;23.90;1.00;;;;;;4993089;28;20449;-68
2021/06/05 07:57:38;;;;;;;57.80;2.30;;;23.90;1.00;;;;;;4992703;28;20910;-68
2021/06/05 08:00:10;;;;;;;57.90;2.30;;;23.80;1.00;;;;;;4992687;28;20978;-66
2021/06/05 08:02:36;;;;;;;57.80;2.37;;;23.80;1.00;;;;;;4992822;28;20522;-67
2021/06/05 08:05:03;;;;;;;57.67;2.10;;;23.70;1.00;;;;;;4992583;28;20486;-67
2021/06/05 08:07:30;;;;;;;57.60;2.50;;;23.60;1.00;;;;;;4992354;28;20883;-67
2021/06/05 08:09:56;;;;;;;58.00;2.47;;;23.60;1.00;;;;;;4992719;28;20541;-67
2021/06/05 08:12:23;;;;;;;57.43;2.50;;;23.60;1.00;;;;;;4992493;28;20538;-67
2021/06/05 08:14:49;;;;;;;57.77;2.30;;;23.60;1.00;;;;;;4992424;28;21001;-67
2021/06/05 08:17:17;;;;;;;57.63;2.30;;;23.60;1.00;;;;;;4992130;28;20508;-66
2021/06/05 08:19:44;;;;;;;57.13;2.03;;;23.70;1.00;;;;;;4992278;28;20450;-66
2021/06/05 08:22:11;;;;;;;57.53;2.40;;;23.70;1.00;;;;;;4992905;28;20533;-66
2021/06/05 08:24:37;;;;;;;63.20;4.60;;;23.60;1.00;;;;;;4992504;28;20439;-67
2021/06/05 08:27:05;;;;;;;58.00;2.40;;;23.50;1.00;;;;;;4992273;28;20545;-67
2021/06/05 08:29:31;;;;;;;57.77;2.60;;;23.40;1.00;;;;;;4992361;28;20534;-67
2021/06/05 08:31:57;;;;;;;57.67;2.50;;;23.30;1.00;;;;;;4992439;28;20457;-67
2021/06/05 08:34:26;;;;;;;57.67;2.50;;;23.20;1.00;;;;;;4992223;28;20552;-66
2021/06/05 08:36:54;;;;;;;57.90;2.80;;;23.20;1.00;;;;;;4992105;28;20462;-67
2021/06/05 08:39:21;;;;;;;57.70;2.57;;;23.00;1.00;;;;;;4992396;28;20478;-66
2021/06/05 08:41:50;;;;;;;57.67;2.80;;;22.80;1.00;;;;;;4992381;28;20542;-67
2021/06/05 08:44:25;;;;;;;57.57;2.47;;;22.60;1.00;;;;;;4992368;28;20558;-66
2021/06/05 08:47:00;;;;;;;57.63;2.30;;;22.50;1.00;;;;;;4992004;28;20492;-67
2021/06/05 08:49:31;;;;;;;57.40;2.40;;;22.30;1.00;;;;;;4992420;28;20461;-67
2021/06/05 08:52:05;;;;;;;58.47;2.80;;;22.20;1.00;;;;;;4992377;28;20535;-67
2021/06/05 08:54:43;;;;;;;57.93;2.60;;;22.10;1.00;;;;;;4992188;28;20917;-67
2021/06/05 08:57:19;;;;;;;57.73;2.60;;;22.20;1.00;;;;;;4993862;28;20486;-67
2021/06/05 08:59:46;;;;;;;57.93;2.47;;;22.20;1.00;;;;;;4995923;28;20555;-67
2021/06/05 09:02:15;;;;;;;57.37;2.60;;;22.20;1.00;;;;;;4996022;28;20451;-66
2021/06/05 09:04:43;;;;;;;57.57;2.17;;;22.10;1.00;;;;;;4995916;28;20465;-67
2021/06/05 09:07:12;;;;;;;57.80;2.73;;;22.10;1.00;;;;;;4995621;28;20504;-67
2021/06/05 09:09:41;;;;;;;57.67;2.30;;;22.00;1.00;;;;;;4995637;28;20514;-67
2021/06/05 09:12:09;;;;;;;57.67;2.80;;;22.00;1.00;;;;;;4995946;28;20597;-67
2021/06/05 09:14:36;;;;;;;58.00;2.40;;;22.00;1.00;;;;;;4995875;28;20489;-67
2021/06/05 09:17:15;;;;;;;57.77;2.40;;;22.00;1.00;;;;;;4995365;28;20463;-67
2021/06/05 09:20:00;;;;;;;57.60;2.30;;;22.10;1.00;;;;;;4995698;28;21016;-67
2021/06/05 09:22:31;;;;;;;57.73;2.60;;;22.20;1.00;;;;;;4995463;28;20539;-67
2021/06/05 09:24:58;;;;;;;57.77;2.20;;;22.30;1.00;;;;;;4995493;28;20969;-67
2021/06/05 09:27:26;;;;;;;57.70;2.43;;;22.40;1.00;;;;;;4995273;28;20557;-67
2021/06/05 09:29:57;;;;;;;57.60;2.63;;;22.40;1.00;;;;;;4995230;28;20453;-67
2021/06/05 09:32:25;;;;;;;57.80;2.30;;;22.50;1.00;;;;;;4995392;28;20537;-67
2021/06/05 09:34:56;;;;;;;57.77;2.80;;;22.60;1.00;;;;;;4995076;28;20486;-67
2021/06/05 09:37:29;;;;;;;57.57;2.37;;;22.70;1.00;;;;;;4994938;28;20561;-67
2021/06/05 09:40:04;;;;;;;58.00;2.80;;;22.70;1.00;;;;;;4995134;28;20487;-66
2021/06/05 09:42:33;;;;;;;57.17;2.30;;;22.70;1.00;;;;;;4995071;28;20822;-67
2021/06/05 09:45:01;;;;;;;57.37;2.10;;;22.70;1.00;;;;;;4995099;28;20442;-66
2021/06/05 09:47:31;;;;;;;57.70;2.43;;;22.60;1.00;;;;;;4994652;28;20477;-67
2021/06/05 09:50:19;;;;;;;57.77;2.30;;;22.50;1.00;;;;;;4994898;28;20462;-67
2021/06/05 09:52:46;;;;;;;57.67;2.13;;;22.50;1.00;;;;;;4995025;28;20463;-67
2021/06/05 09:55:34;;;;;;;58.00;2.30;;;22.60;1.00;;;;;;4995024;28;20827;-67
2021/06/05 09:58:02;;;;;;;57.90;2.97;;;22.70;1.00;;;;;;4994832;28;20478;-67
2021/06/05 10:00:32;;;;;;;57.73;2.50;;;23.00;1.00;;;;;;4994842;28;20837;-68
2021/06/05 10:03:28;;;;;;;57.57;2.30;;;23.30;1.00;;;;;;4995321;28;20458;-67
2021/06/05 10:05:57;;;;;;;57.67;2.00;;;23.70;1.00;;;;;;4994810;28;20490;-67
2021/06/05 10:08:33;;;;;;;57.60;2.10;;;24.10;1.00;;;;;;4993419;28;20554;-67
2021/06/05 10:11:06;;;;;;;57.57;2.50;;;24.40;1.00;;;;;;4994899;28;20481;-66
2021/06/05 10:13:37;;;;;;;57.60;2.10;;;24.70;1.00;;;;;;4994777;28;20576;-66
2021/06/05 10:16:09;;;;;;;57.27;1.83;;;24.70;1.00;;;;;;4994975;28;20836;-67
2021/06/05 10:18:41;;;;;;;57.63;1.90;;;24.70;1.00;;;;;;4994300;28;20579;-67
2021/06/05 10:21:18;;;;;;;57.73;2.13;;;24.50;1.00;;;;;;4994654;28;20515;-67
2021/06/05 10:23:48;;;;;;;57.60;2.30;;;24.40;1.00;;;;;;4994567;28;20501;-67
2021/06/05 10:26:23;;;;;;;57.80;2.50;;;24.10;1.00;;;;;;4994336;28;20520;-67
2021/06/05 10:28:54;;;;;;;59.40;2.83;;;23.80;1.00;;;;;;4994305;28;20546;-67
2021/06/05 10:31:23;;;;;;;57.60;2.20;;;23.50;1.00;;;;;;4994622;28;20451;-67
2021/06/05 10:33:54;;;;;;;59.33;3.13;;;23.30;1.00;;;;;;4994220;28;20489;-66
2021/06/05 10:36:26;;;;;;;57.80;2.37;;;23.10;1.00;;;;;;4994074;28;20463;-67
2021/06/05 10:38:57;;;;;;;58.57;3.97;;;22.90;1.00;;;;;;4994097;28;20991;-67
2021/06/05 10:41:27;;;;;;;57.60;2.30;;;22.80;1.00;;;;;;4993990;28;20513;-67
2021/06/05 10:43:54;;;;;;;57.70;2.83;;;22.80;1.00;;;;;;4994221;28;20808;-66
2021/06/05 10:46:35;;;;;;;57.90;2.40;;;22.90;1.00;;;;;;4993828;28;20470;-67
2021/06/05 10:49:08;;;;;;;57.60;2.30;;;23.00;1.00;;;;;;4993848;28;20987;-67
2021/06/05 10:51:41;;;;;;;57.77;2.40;;;23.00;1.00;;;;;;4993909;28;20494;-67
2021/06/05 10:54:13;;;;;;;57.57;2.20;;;23.10;1.00;;;;;;4994118;28;20586;-66
2021/06/05 10:56:42;;;;;;;57.73;2.27;;;23.20;1.00;;;;;;4993553;28;20827;-67
2021/06/05 10:59:36;;;;;;;57.27;2.10;;;23.40;1.00;;;;;;4993701;28;20581;-67
2021/06/05 11:02:02;;;;;;;57.53;2.30;;;23.50;1.00;;;;;;4993959;28;20455;-67
2021/06/05 11:04:47;;;;;;;57.70;2.40;;;23.50;1.00;;;;;;4993833;28;20444;-67
2021/06/05 11:07:36;;;;;;;57.87;2.30;;;23.50;1.00;;;;;;4993405;28;20605;-67
2021/06/05 11:10:07;;;;;;;57.80;2.50;;;23.60;1.00;;;;;;4990379;28;20459;-67
2021/06/05 11:12:50;;;;;;;57.23;2.10;;;23.60;1.00;;;;;;4993639;28;20831;-67
2021/06/05 11:15:49;;;;;;;57.53;2.10;;;23.90;1.00;;;;;;4993537;28;20452;-66
2021/06/05 11:18:23;;;;;;;57.50;2.40;;;24.10;1.00;;;;;;4993224;28;20897;-66
2021/06/05 11:20:49;;;;;;;57.67;2.20;;;24.40;1.00;;;;;;4993258;28;20475;-67
2021/06/05 11:23:22;;;;;;;57.50;2.30;;;24.50;1.00;;;;;;4993298;28;20538;-67
2021/06/05 11:25:51;;;;;;;57.67;2.10;;;24.80;1.00;;;;;;4993392;28;20443;-67
2021/06/05 11:28:48;;;;;;;57.27;2.27;;;24.90;1.00;;;;;;4992972;28;20554;-68
2021/06/05 11:31:45;;;;;;;57.53;2.00;;;25.20;1.00;;;;;;4992747;28;20467;-67
2021/06/05 11:34:55;;;;;;;57.47;2.10;;;25.60;1.00;;;;;;4993175;28;20527;-67
2021/06/05 11:37:49;;;;;;;57.67;2.10;;;26.10;1.00;;;;;;4992720;28;20511;-67
2021/06/05 11:41:01;;;;;;;57.90;2.50;;;26.30;1.00;;;;;;4993100;28;20491;-67
2021/06/05 11:43:49;;;;;;;57.40;2.20;;;26.50;1.00;;;;;;4993123;28;20535;-67
2021/06/05 11:46:44;;;;;;;57.47;1.97;;;26.60;1.00;;;;;;4992727;28;20532;-66
2021/06/05 11:49:26;;;;;;;57.43;2.20;;;26.50;1.00;;;;;;4992861;28;20480;-67
2021/06/05 11:51:52;;;;;;;57.47;2.30;;;26.30;1.00;;;;;;4992689;28;20462;-67
2021/06/05 11:54:22;;;;;;;57.40;2.20;;;26.10;1.00;;;;;;4992705;28;20803;-67
2021/06/05 11:56:54;;;;;;;57.47;2.10;;;25.80;1.00;;;;;;4992778;28;20826;-67
2021/06/05 11:59:30;;;;;;;57.37;1.90;;;25.50;1.00;;;;;;4992440;28;20999;-67
2021/06/05 12:02:07;;;;;;;57.37;2.10;;;25.10;1.00;;;;;;4992725;28;20533;-67
2021/06/05 12:04:41;;;;;;;57.57;2.10;;;24.50;1.00;;;;;;4992573;28;20990;-67
2021/06/05 12:07:26;;;;;;;57.37;2.20;;;23.70;1.00;;;;;;4992337;28;21023;-68
2021/06/05 12:09:56;;;;;;;57.37;2.30;;;23.50;1.00;;;;;;4992733;28;20450;-68
2021/06/05 12:12:27;;;;;;;58.07;2.77;;;23.10;1.00;;;;;;4992781;28;20451;-67
2021/06/05 12:15:03;;;;;;;57.37;2.40;;;22.80;1.00;;;;;;4992532;28;20582;-67
2021/06/05 12:17:32;;;;;;;57.80;2.40;;;22.70;1.00;;;;;;4992465;28;20477;-68
2021/06/05 12:20:09;;;;;;;57.57;2.20;;;23.20;1.00;;;;;;4992505;28;20554;-67
2021/06/05 12:22:37;;;;;;;57.90;2.40;;;24.10;1.00;;;;;;4992795;28;20450;-67
2021/06/05 12:25:05;;;;;;;57.67;2.40;;;24.50;1.00;;;;;;4992531;28;20467;-66
2021/06/05 12:27:36;;;;;;;57.70;2.13;;;24.90;1.00;;;;;;4992104;28;20610;-67
2021/06/05 12:30:11;;;;;;;57.73;2.30;;;26.70;1.00;;;;;;4992698;28;20435;-67
2021/06/05 12:32:37;;;;;;;57.53;2.10;;;29.10;1.00;;;;;;4995460;28;20909;-67
2021/06/05 12:35:29;;;;;;;57.40;1.93;;;30.60;1.00;;;;;;4996299;28;21026;-67
2021/06/05 12:37:57;;;;;;;57.77;2.37;;;31.30;1.00;;;;;;4986445;28;20514;-67
2021/06/05 12:40:35;;;;;;;57.27;2.10;;;30.60;1.00;;;;;;4996312;28;20581;-68
2021/06/05 12:43:05;;;;;;;57.60;2.37;;;29.60;1.00;;;;;;4996451;28;20475;-67
2021/06/05 12:45:33;;;;;;;57.30;2.00;;;28.70;1.00;;;;;;4996542;28;20954;-67
2021/06/05 12:48:00;;;;;;;57.33;2.17;;;28.00;1.00;;;;;;4995968;28;20471;-67
2021/06/05 12:50:29;;;;;;;57.50;2.00;;;27.40;1.00;;;;;;4996073;28;20478;-67
2021/06/05 12:52:58;;;;;;;57.43;2.10;;;26.80;1.00;;;;;;4996192;28;20442;-67
2021/06/05 12:55:38;;;;;;;57.43;2.10;;;26.30;1.00;;;;;;4996423;28;20707;-66
2021/06/05 12:58:07;;;;;;;57.47;1.83;;;25.90;1.00;;;;;;4996027;28;20555;-67
2021/06/05 13:00:41;;;;;;;57.57;2.10;;;25.60;1.00;;;;;;4996052;28;20501;-67
2021/06/05 13:03:26;;;;;;;57.77;2.30;;;25.40;1.00;;;;;;4995864;28;21023;-68